sensor_id;sensor_type;location;lat;lon;timestamp;temperature;humidity
74153;DHT22;62505;46.070;14.492;2022-11-15T00:02:15;21.60;85.70
74153;DHT22;62505;46.070;14.492;2022-11-15T00:04:43;21.60;85.70
74153;DHT22;62505;46.070;14.492;2022-11-15T00:07:10;21.60;85.70
74153;DHT22;62505;46.070;14.492;2022-11-15T00:09:36;21.50;85.70
74153;DHT22;62505;46.070;14.492;2022-11-15T00:12:04;21.60;86.50
74153;DHT22;62505;46.070;14.492;2022-11-15T00:14:31;21.50;85.70
74153;DHT22;62505;46.070;14.492;2022-11-15T00:16:58;21.60;85.80
74153;DHT22;62505;46.070;14.492;2022-11-15T00:19:25;21.50;85.70
74153;DHT22;62505;46.070;14.492;2022-11-15T00:21:53;21.50;85.80
74153;DHT22;62505;46.070;14.492;2022-11-15T00:24:20;21.50;85.70
74153;DHT22;62505;46.070;14.492;2022-11-15T00:26:47;21.50;85.80
74153;DHT22;62505;46.070;14.492;2022-11-15T00:29:14;21.50;85.80
74153;DHT22;62505;46.070;14.492;2022-11-15T00:31:40;21.50;85.90
74153;DHT22;62505;46.070;14.492;2022-11-15T00:34:08;21.50;85.90
74153;DHT22;62505;46.070;14.492;2022-11-15T00:36:35;21.50;86.00
74153;DHT22;62505;46.070;14.492;2022-11-15T00:39:05;21.50;85.90
74153;DHT22;62505;46.070;14.492;2022-11-15T00:41:32;21.50;86.10
74153;DHT22;62505;46.070;14.492;2022-11-15T00:43:59;21.50;86.00
74153;DHT22;62505;46.070;14.492;2022-11-15T00:46:26;21.50;86.00
74153;DHT22;62505;46.070;14.492;2022-11-15T00:48:53;21.50;86.10
74153;DHT22;62505;46.070;14.492;2022-11-15T00:51:19;21.50;86.00
74153;DHT22;62505;46.070;14.492;2022-11-15T00:53:46;21.50;86.10
74153;DHT22;62505;46.070;14.492;2022-11-15T00:56:15;21.50;86.10
74153;DHT22;62505;46.070;14.492;2022-11-15T00:58:42;21.50;86.20
74153;DHT22;62505;46.070;14.492;2022-11-15T01:01:10;21.50;86.10
74153;DHT22;62505;46.070;14.492;2022-11-15T01:03:38;21.50;86.20
74153;DHT22;62505;46.070;14.492;2022-11-15T01:06:05;21.50;86.20
74153;DHT22;62505;46.070;14.492;2022-11-15T01:08:33;21.50;86.20
74153;DHT22;62505;46.070;14.492;2022-11-15T01:11:01;21.50;86.20
74153;DHT22;62505;46.070;14.492;2022-11-15T01:13:31;21.50;86.20
74153;DHT22;62505;46.070;14.492;2022-11-15T01:15:59;21.50;86.20
74153;DHT22;62505;46.070;14.492;2022-11-15T01:18:31;21.50;86.40
74153;DHT22;62505;46.070;14.492;2022-11-15T01:20:58;21.50;86.20
74153;DHT22;62505;46.070;14.492;2022-11-15T01:23:25;21.50;86.30
74153;DHT22;62505;46.070;14.492;2022-11-15T01:25:52;21.50;86.20
74153;DHT22;62505;46.070;14.492;2022-11-15T01:28:24;21.50;86.30
74153;DHT22;62505;46.070;14.492;2022-11-15T01:30:52;21.50;86.40
74153;DHT22;62505;46.070;14.492;2022-11-15T01:33:19;21.50;86.30
74153;DHT22;62505;46.070;14.492;2022-11-15T01:35:46;21.50;86.40
74153;DHT22;62505;46.070;14.492;2022-11-15T01:38:13;21.50;86.50
74153;DHT22;62505;46.070;14.492;2022-11-15T01:40:40;21.50;86.40
74153;DHT22;62505;46.070;14.492;2022-11-15T01:43:22;21.50;86.60
74153;DHT22;62505;46.070;14.492;2022-11-15T01:45:54;21.50;86.50
74153;DHT22;62505;46.070;14.492;2022-11-15T01:48:27;21.50;86.50
74153;DHT22;62505;46.070;14.492;2022-11-15T01:50:54;21.50;86.50
74153;DHT22;62505;46.070;14.492;2022-11-15T01:53:23;21.50;86.50
74153;DHT22;62505;46.070;14.492;2022-11-15T01:55:51;21.50;86.60
74153;DHT22;62505;46.070;14.492;2022-11-15T01:58:18;21.50;86.50
74153;DHT22;62505;46.070;14.492;2022-11-15T02:00:45;21.50;86.60
74153;DHT22;62505;46.070;14.492;2022-11-15T02:03:15;21.50;86.60
74153;DHT22;62505;46.070;14.492;2022-11-15T02:05:43;21.50;86.60
74153;DHT22;62505;46.070;14.492;2022-11-15T02:08:11;21.50;86.60
74153;DHT22;62505;46.070;14.492;2022-11-15T02:10:45;21.50;86.60
74153;DHT22;62505;46.070;14.492;2022-11-15T02:13:13;21.50;86.60
74153;DHT22;62505;46.070;14.492;2022-11-15T02:15:48;21.50;86.70
74153;DHT22;62505;46.070;14.492;2022-11-15T02:18:26;21.50;86.60
74153;DHT22;62505;46.070;14.492;2022-11-15T02:21:16;21.50;86.70
74153;DHT22;62505;46.070;14.492;2022-11-15T02:30:21;21.50;86.80
74153;DHT22;62505;46.070;14.492;2022-11-15T02:32:51;21.50;87.10
74153;DHT22;62505;46.070;14.492;2022-11-15T02:35:26;21.40;86.80
74153;DHT22;62505;46.070;14.492;2022-11-15T02:37:57;21.50;86.70
74153;DHT22;62505;46.070;14.492;2022-11-15T02:40:34;21.50;87.50
74153;DHT22;62505;46.070;14.492;2022-11-15T02:43:07;21.40;86.70
74153;DHT22;62505;46.070;14.492;2022-11-15T02:46:00;21.40;86.90
74153;DHT22;62505;46.070;14.492;2022-11-15T02:48:29;21.50;86.80
74153;DHT22;62505;46.070;14.492;2022-11-15T02:50:58;21.40;86.80
74153;DHT22;62505;46.070;14.492;2022-11-15T02:53:26;21.40;86.80
74153;DHT22;62505;46.070;14.492;2022-11-15T02:55:55;21.40;87.00
74153;DHT22;62505;46.070;14.492;2022-11-15T02:58:46;21.40;87.10
74153;DHT22;62505;46.070;14.492;2022-11-15T03:01:26;21.40;86.80
74153;DHT22;62505;46.070;14.492;2022-11-15T03:04:03;21.40;86.80
74153;DHT22;62505;46.070;14.492;2022-11-15T03:06:39;21.50;86.80
74153;DHT22;62505;46.070;14.492;2022-11-15T03:09:12;21.40;86.80
74153;DHT22;62505;46.070;14.492;2022-11-15T03:11:46;21.40;86.90
74153;DHT22;62505;46.070;14.492;2022-11-15T03:14:21;21.40;86.90
74153;DHT22;62505;46.070;14.492;2022-11-15T03:16:57;21.40;87.10
74153;DHT22;62505;46.070;14.492;2022-11-15T03:19:30;21.40;87.00
74153;DHT22;62505;46.070;14.492;2022-11-15T03:22:00;21.40;86.80
74153;DHT22;62505;46.070;14.492;2022-11-15T03:24:30;21.40;86.90
74153;DHT22;62505;46.070;14.492;2022-11-15T03:27:00;21.40;87.00
74153;DHT22;62505;46.070;14.492;2022-11-15T03:29:32;21.40;87.30
74153;DHT22;62505;46.070;14.492;2022-11-15T03:32:05;21.40;87.00
74153;DHT22;62505;46.070;14.492;2022-11-15T03:34:37;21.40;87.00
74153;DHT22;62505;46.070;14.492;2022-11-15T03:37:05;21.40;87.00
74153;DHT22;62505;46.070;14.492;2022-11-15T03:39:33;21.40;87.10
74153;DHT22;62505;46.070;14.492;2022-11-15T03:42:11;21.40;87.00
74153;DHT22;62505;46.070;14.492;2022-11-15T03:44:45;21.40;87.10
74153;DHT22;62505;46.070;14.492;2022-11-15T03:47:17;21.40;87.20
74153;DHT22;62505;46.070;14.492;2022-11-15T03:49:50;21.40;86.90
74153;DHT22;62505;46.070;14.492;2022-11-15T03:52:18;21.40;87.00
74153;DHT22;62505;46.070;14.492;2022-11-15T03:54:51;21.40;87.20
74153;DHT22;62505;46.070;14.492;2022-11-15T03:57:19;21.40;87.20
74153;DHT22;62505;46.070;14.492;2022-11-15T03:59:46;21.40;87.20
74153;DHT22;62505;46.070;14.492;2022-11-15T04:02:14;21.40;87.20
74153;DHT22;62505;46.070;14.492;2022-11-15T04:04:41;21.40;87.20
74153;DHT22;62505;46.070;14.492;2022-11-15T04:07:08;21.40;87.00
74153;DHT22;62505;46.070;14.492;2022-11-15T04:09:35;21.40;87.10
74153;DHT22;62505;46.070;14.492;2022-11-15T04:12:23;21.40;87.20
74153;DHT22;62505;46.070;14.492;2022-11-15T04:14:58;21.40;87.10
74153;DHT22;62505;46.070;14.492;2022-11-15T04:17:36;21.40;87.10
74153;DHT22;62505;46.070;14.492;2022-11-15T04:20:04;21.40;87.10
74153;DHT22;62505;46.070;14.492;2022-11-15T04:22:49;21.40;87.10
74153;DHT22;62505;46.070;14.492;2022-11-15T04:25:36;21.40;87.90
74153;DHT22;62505;46.070;14.492;2022-11-15T04:28:03;21.40;87.60
74153;DHT22;62505;46.070;14.492;2022-11-15T04:30:30;21.40;87.20
74153;DHT22;62505;46.070;14.492;2022-11-15T04:32:58;21.40;87.20
74153;DHT22;62505;46.070;14.492;2022-11-15T04:35:25;21.40;87.20
74153;DHT22;62505;46.070;14.492;2022-11-15T04:37:52;21.40;87.20
74153;DHT22;62505;46.070;14.492;2022-11-15T04:40:19;21.40;87.10
74153;DHT22;62505;46.070;14.492;2022-11-15T04:42:46;21.40;87.50
74153;DHT22;62505;46.070;14.492;2022-11-15T04:45:13;21.40;87.20
74153;DHT22;62505;46.070;14.492;2022-11-15T04:47:40;21.40;87.20
74153;DHT22;62505;46.070;14.492;2022-11-15T04:50:11;21.40;87.20
74153;DHT22;62505;46.070;14.492;2022-11-15T04:52:39;21.40;87.20
74153;DHT22;62505;46.070;14.492;2022-11-15T04:55:06;21.40;87.20
74153;DHT22;62505;46.070;14.492;2022-11-15T04:57:33;21.40;87.30
74153;DHT22;62505;46.070;14.492;2022-11-15T05:00:00;21.40;87.20
74153;DHT22;62505;46.070;14.492;2022-11-15T05:02:28;21.40;87.40
74153;DHT22;62505;46.070;14.492;2022-11-15T05:05:16;21.40;87.30
74153;DHT22;62505;46.070;14.492;2022-11-15T05:07:42;21.40;87.30
74153;DHT22;62505;46.070;14.492;2022-11-15T05:10:09;21.40;87.20
74153;DHT22;62505;46.070;14.492;2022-11-15T05:12:36;21.40;87.30
74153;DHT22;62505;46.070;14.492;2022-11-15T05:15:04;21.40;87.50
74153;DHT22;62505;46.070;14.492;2022-11-15T05:17:31;21.40;87.50
74153;DHT22;62505;46.070;14.492;2022-11-15T05:19:58;21.40;87.60
74153;DHT22;62505;46.070;14.492;2022-11-15T05:22:27;21.40;87.80
74153;DHT22;62505;46.070;14.492;2022-11-15T05:24:54;21.40;87.70
74153;DHT22;62505;46.070;14.492;2022-11-15T05:27:20;21.40;87.50
74153;DHT22;62505;46.070;14.492;2022-11-15T05:29:47;21.40;87.40
74153;DHT22;62505;46.070;14.492;2022-11-15T05:32:18;21.40;87.40
74153;DHT22;62505;46.070;14.492;2022-11-15T05:34:45;21.40;87.50
74153;DHT22;62505;46.070;14.492;2022-11-15T05:37:12;21.40;87.40
74153;DHT22;62505;46.070;14.492;2022-11-15T05:39:41;21.40;87.50
74153;DHT22;62505;46.070;14.492;2022-11-15T05:42:09;21.40;87.50
74153;DHT22;62505;46.070;14.492;2022-11-15T05:44:37;21.40;87.60
74153;DHT22;62505;46.070;14.492;2022-11-15T05:47:09;21.40;88.20
74153;DHT22;62505;46.070;14.492;2022-11-15T05:49:38;21.40;87.60
74153;DHT22;62505;46.070;14.492;2022-11-15T05:52:07;21.40;87.40
74153;DHT22;62505;46.070;14.492;2022-11-15T05:54:36;21.40;87.50
74153;DHT22;62505;46.070;14.492;2022-11-15T05:57:05;21.40;87.50
74153;DHT22;62505;46.070;14.492;2022-11-15T05:59:33;21.40;87.50
74153;DHT22;62505;46.070;14.492;2022-11-15T06:02:01;21.40;87.60
74153;DHT22;62505;46.070;14.492;2022-11-15T06:04:31;21.40;87.50
74153;DHT22;62505;46.070;14.492;2022-11-15T06:06:58;21.40;87.60
74153;DHT22;62505;46.070;14.492;2022-11-15T06:09:25;21.40;87.70
74153;DHT22;62505;46.070;14.492;2022-11-15T06:11:52;21.40;87.50
74153;DHT22;62505;46.070;14.492;2022-11-15T06:14:20;21.40;87.60
74153;DHT22;62505;46.070;14.492;2022-11-15T06:16:47;21.40;87.70
74153;DHT22;62505;46.070;14.492;2022-11-15T06:19:14;21.40;87.80
74153;DHT22;62505;46.070;14.492;2022-11-15T06:21:42;21.40;87.70
74153;DHT22;62505;46.070;14.492;2022-11-15T06:24:09;21.40;87.80
74153;DHT22;62505;46.070;14.492;2022-11-15T06:26:36;21.40;87.80
74153;DHT22;62505;46.070;14.492;2022-11-15T06:29:03;21.40;87.90
74153;DHT22;62505;46.070;14.492;2022-11-15T06:31:33;21.40;87.80
74153;DHT22;62505;46.070;14.492;2022-11-15T06:34:00;21.40;88.00
74153;DHT22;62505;46.070;14.492;2022-11-15T06:36:27;21.40;88.10
74153;DHT22;62505;46.070;14.492;2022-11-15T06:38:54;21.40;88.00
74153;DHT22;62505;46.070;14.492;2022-11-15T06:41:21;21.40;88.10
74153;DHT22;62505;46.070;14.492;2022-11-15T06:43:47;21.40;88.10
74153;DHT22;62505;46.070;14.492;2022-11-15T06:46:14;21.40;88.10
74153;DHT22;62505;46.070;14.492;2022-11-15T06:48:43;21.40;88.20
74153;DHT22;62505;46.070;14.492;2022-11-15T06:51:10;21.40;88.10
74153;DHT22;62505;46.070;14.492;2022-11-15T06:53:37;21.40;88.90
74153;DHT22;62505;46.070;14.492;2022-11-15T06:56:05;21.40;88.10
74153;DHT22;62505;46.070;14.492;2022-11-15T06:58:33;21.40;88.10
74153;DHT22;62505;46.070;14.492;2022-11-15T07:01:01;21.40;88.20
74153;DHT22;62505;46.070;14.492;2022-11-15T07:03:28;21.40;88.20
74153;DHT22;62505;46.070;14.492;2022-11-15T07:05:57;21.40;88.20
74153;DHT22;62505;46.070;14.492;2022-11-15T07:08:27;21.30;87.90
74153;DHT22;62505;46.070;14.492;2022-11-15T07:10:55;21.40;88.00
74153;DHT22;62505;46.070;14.492;2022-11-15T07:13:24;21.40;88.00
74153;DHT22;62505;46.070;14.492;2022-11-15T07:15:52;21.40;88.10
74153;DHT22;62505;46.070;14.492;2022-11-15T07:18:19;21.40;87.80
74153;DHT22;62505;46.070;14.492;2022-11-15T07:20:46;21.40;87.70
74153;DHT22;62505;46.070;14.492;2022-11-15T07:23:14;21.40;87.80
74153;DHT22;62505;46.070;14.492;2022-11-15T07:25:41;21.40;87.80
74153;DHT22;62505;46.070;14.492;2022-11-15T07:28:08;21.40;87.80
74153;DHT22;62505;46.070;14.492;2022-11-15T07:30:35;21.40;87.70
74153;DHT22;62505;46.070;14.492;2022-11-15T07:33:02;21.40;87.70
74153;DHT22;62505;46.070;14.492;2022-11-15T07:35:29;21.40;88.00
74153;DHT22;62505;46.070;14.492;2022-11-15T07:37:57;21.40;89.60
74153;DHT22;62505;46.070;14.492;2022-11-15T07:40:27;21.50;90.30
74153;DHT22;62505;46.070;14.492;2022-11-15T07:42:59;21.50;90.00
74153;DHT22;62505;46.070;14.492;2022-11-15T07:45:26;21.60;89.80
74153;DHT22;62505;46.070;14.492;2022-11-15T07:47:53;21.60;89.80
74153;DHT22;62505;46.070;14.492;2022-11-15T07:50:21;21.60;89.90
74153;DHT22;62505;46.070;14.492;2022-11-15T07:52:53;21.70;90.20
74153;DHT22;62505;46.070;14.492;2022-11-15T07:55:20;21.70;90.20
74153;DHT22;62505;46.070;14.492;2022-11-15T07:57:48;21.70;90.00
74153;DHT22;62505;46.070;14.492;2022-11-15T08:00:16;21.70;90.30
74153;DHT22;62505;46.070;14.492;2022-11-15T08:02:44;21.70;90.10
74153;DHT22;62505;46.070;14.492;2022-11-15T08:05:11;21.60;89.70
74153;DHT22;62505;46.070;14.492;2022-11-15T08:07:38;21.60;90.00
74153;DHT22;62505;46.070;14.492;2022-11-15T08:10:06;21.60;89.40
74153;DHT22;62505;46.070;14.492;2022-11-15T08:12:34;21.60;89.50
74153;DHT22;62505;46.070;14.492;2022-11-15T08:15:02;21.50;89.50
74153;DHT22;62505;46.070;14.492;2022-11-15T08:17:29;21.50;89.60
74153;DHT22;62505;46.070;14.492;2022-11-15T08:19:58;21.50;89.80
74153;DHT22;62505;46.070;14.492;2022-11-15T08:22:25;21.50;89.70
74153;DHT22;62505;46.070;14.492;2022-11-15T08:24:52;21.50;89.90
74153;DHT22;62505;46.070;14.492;2022-11-15T08:27:19;21.50;89.90
74153;DHT22;62505;46.070;14.492;2022-11-15T08:29:48;21.50;89.80
74153;DHT22;62505;46.070;14.492;2022-11-15T08:32:16;21.50;89.80
74153;DHT22;62505;46.070;14.492;2022-11-15T08:34:46;21.50;89.90
74153;DHT22;62505;46.070;14.492;2022-11-15T08:37:13;21.50;89.60
74153;DHT22;62505;46.070;14.492;2022-11-15T08:39:40;21.50;89.60
74153;DHT22;62505;46.070;14.492;2022-11-15T08:42:07;21.50;89.90
74153;DHT22;62505;46.070;14.492;2022-11-15T08:44:34;21.50;89.90
74153;DHT22;62505;46.070;14.492;2022-11-15T08:47:01;21.50;89.90
74153;DHT22;62505;46.070;14.492;2022-11-15T08:49:29;21.50;89.80
74153;DHT22;62505;46.070;14.492;2022-11-15T08:51:56;21.40;89.90
74153;DHT22;62505;46.070;14.492;2022-11-15T08:54:23;21.40;89.60
74153;DHT22;62505;46.070;14.492;2022-11-15T08:56:49;21.40;89.60
74153;DHT22;62505;46.070;14.492;2022-11-15T08:59:16;21.50;89.40
74153;DHT22;62505;46.070;14.492;2022-11-15T09:01:43;21.50;89.50
74153;DHT22;62505;46.070;14.492;2022-11-15T09:04:13;21.50;89.50
74153;DHT22;62505;46.070;14.492;2022-11-15T09:06:41;21.50;89.40
74153;DHT22;62505;46.070;14.492;2022-11-15T09:09:08;21.40;89.30
74153;DHT22;62505;46.070;14.492;2022-11-15T09:11:35;21.50;89.30
74153;DHT22;62505;46.070;14.492;2022-11-15T09:14:03;21.50;89.30
74153;DHT22;62505;46.070;14.492;2022-11-15T09:16:30;21.50;89.30
74153;DHT22;62505;46.070;14.492;2022-11-15T09:18:57;21.40;89.30
74153;DHT22;62505;46.070;14.492;2022-11-15T09:21:24;21.40;89.30
74153;DHT22;62505;46.070;14.492;2022-11-15T09:23:52;21.40;89.40
74153;DHT22;62505;46.070;14.492;2022-11-15T09:26:19;21.50;89.80
74153;DHT22;62505;46.070;14.492;2022-11-15T09:28:46;21.50;90.00
74153;DHT22;62505;46.070;14.492;2022-11-15T09:31:14;21.50;89.50
74153;DHT22;62505;46.070;14.492;2022-11-15T09:33:43;21.50;89.50
74153;DHT22;62505;46.070;14.492;2022-11-15T09:36:10;21.50;89.60
74153;DHT22;62505;46.070;14.492;2022-11-15T09:38:37;21.50;89.60
74153;DHT22;62505;46.070;14.492;2022-11-15T09:44:11;21.50;89.80
74153;DHT22;62505;46.070;14.492;2022-11-15T09:46:53;21.50;89.90
74153;DHT22;62505;46.070;14.492;2022-11-15T09:49:22;21.50;89.90
74153;DHT22;62505;46.070;14.492;2022-11-15T09:51:52;21.40;90.00
74153;DHT22;62505;46.070;14.492;2022-11-15T09:54:27;21.40;90.00
74153;DHT22;62505;46.070;14.492;2022-11-15T09:57:09;21.40;89.90
74153;DHT22;62505;46.070;14.492;2022-11-15T09:59:49;21.40;90.00
74153;DHT22;62505;46.070;14.492;2022-11-15T10:02:40;21.40;90.00
74153;DHT22;62505;46.070;14.492;2022-11-15T10:05:12;21.40;90.00
74153;DHT22;62505;46.070;14.492;2022-11-15T10:07:48;21.40;89.80
74153;DHT22;62505;46.070;14.492;2022-11-15T10:10:27;21.40;89.90
74153;DHT22;62505;46.070;14.492;2022-11-15T10:12:57;21.40;89.90
74153;DHT22;62505;46.070;14.492;2022-11-15T10:15:25;21.40;89.90
74153;DHT22;62505;46.070;14.492;2022-11-15T10:18:14;21.40;89.80
74153;DHT22;62505;46.070;14.492;2022-11-15T10:20:48;21.40;89.50
74153;DHT22;62505;46.070;14.492;2022-11-15T10:23:18;21.40;89.60
74153;DHT22;62505;46.070;14.492;2022-11-15T10:25:47;21.40;89.50
74153;DHT22;62505;46.070;14.492;2022-11-15T10:28:17;21.40;89.70
74153;DHT22;62505;46.070;14.492;2022-11-15T10:30:49;21.40;89.80
74153;DHT22;62505;46.070;14.492;2022-11-15T10:33:25;21.40;89.90
74153;DHT22;62505;46.070;14.492;2022-11-15T10:36:18;21.40;89.90
74153;DHT22;62505;46.070;14.492;2022-11-15T10:38:57;21.40;89.60
74153;DHT22;62505;46.070;14.492;2022-11-15T10:41:34;21.40;89.90
74153;DHT22;62505;46.070;14.492;2022-11-15T10:44:10;21.40;90.30
74153;DHT22;62505;46.070;14.492;2022-11-15T10:46:41;21.40;89.90
74153;DHT22;62505;46.070;14.492;2022-11-15T10:49:13;21.40;89.80
74153;DHT22;62505;46.070;14.492;2022-11-15T10:51:44;21.40;89.80
74153;DHT22;62505;46.070;14.492;2022-11-15T10:54:12;21.40;89.80
74153;DHT22;62505;46.070;14.492;2022-11-15T10:56:42;21.40;89.90
74153;DHT22;62505;46.070;14.492;2022-11-15T10:59:20;21.40;89.80
74153;DHT22;62505;46.070;14.492;2022-11-15T11:01:50;21.40;89.70
74153;DHT22;62505;46.070;14.492;2022-11-15T11:04:17;21.40;89.80
74153;DHT22;62505;46.070;14.492;2022-11-15T11:06:49;21.40;89.70
74153;DHT22;62505;46.070;14.492;2022-11-15T11:09:27;21.40;89.80
74153;DHT22;62505;46.070;14.492;2022-11-15T11:11:55;21.40;89.60
74153;DHT22;62505;46.070;14.492;2022-11-15T11:14:25;21.40;89.50
74153;DHT22;62505;46.070;14.492;2022-11-15T11:16:57;21.40;89.60
74153;DHT22;62505;46.070;14.492;2022-11-15T11:19:52;21.40;89.50
74153;DHT22;62505;46.070;14.492;2022-11-15T11:22:26;21.40;89.70
74153;DHT22;62505;46.070;14.492;2022-11-15T11:25:07;21.50;90.10
74153;DHT22;62505;46.070;14.492;2022-11-15T11:27:44;21.50;90.10
74153;DHT22;62505;46.070;14.492;2022-11-15T11:30:18;21.50;90.10
74153;DHT22;62505;46.070;14.492;2022-11-15T11:32:56;21.50;90.10
74153;DHT22;62505;46.070;14.492;2022-11-15T11:35:29;21.60;90.50
74153;DHT22;62505;46.070;14.492;2022-11-15T11:38:10;21.60;90.30
74153;DHT22;62505;46.070;14.492;2022-11-15T11:40:44;21.60;90.60
74153;DHT22;62505;46.070;14.492;2022-11-15T11:43:23;21.60;90.60
74153;DHT22;62505;46.070;14.492;2022-11-15T11:46:11;21.60;90.80
74153;DHT22;62505;46.070;14.492;2022-11-15T11:48:42;21.70;91.30
74153;DHT22;62505;46.070;14.492;2022-11-15T11:51:15;21.70;90.80
74153;DHT22;62505;46.070;14.492;2022-11-15T11:53:48;21.70;91.30
74153;DHT22;62505;46.070;14.492;2022-11-15T11:56:25;21.70;91.10
74153;DHT22;62505;46.070;14.492;2022-11-15T11:58:54;21.80;91.40
74153;DHT22;62505;46.070;14.492;2022-11-15T12:01:25;21.80;92.20
74153;DHT22;62505;46.070;14.492;2022-11-15T12:03:55;21.80;92.00
74153;DHT22;62505;46.070;14.492;2022-11-15T12:06:32;21.80;93.30
74153;DHT22;62505;46.070;14.492;2022-11-15T12:09:03;21.80;93.60
74153;DHT22;62505;46.070;14.492;2022-11-15T12:11:38;21.80;93.30
74153;DHT22;62505;46.070;14.492;2022-11-15T12:14:12;21.80;92.80
74153;DHT22;62505;46.070;14.492;2022-11-15T12:16:44;21.80;92.80
74153;DHT22;62505;46.070;14.492;2022-11-15T12:19:11;21.70;92.30
74153;DHT22;62505;46.070;14.492;2022-11-15T12:21:43;21.70;91.80
74153;DHT22;62505;46.070;14.492;2022-11-15T12:24:17;21.70;91.60
74153;DHT22;62505;46.070;14.492;2022-11-15T12:26:51;21.70;91.50
74153;DHT22;62505;46.070;14.492;2022-11-15T12:29:23;21.70;91.60
74153;DHT22;62505;46.070;14.492;2022-11-15T12:31:55;21.70;91.70
74153;DHT22;62505;46.070;14.492;2022-11-15T12:34:49;21.60;91.60
74153;DHT22;62505;46.070;14.492;2022-11-15T12:37:50;21.60;91.40
74153;DHT22;62505;46.070;14.492;2022-11-15T12:40:23;21.60;91.40
74153;DHT22;62505;46.070;14.492;2022-11-15T12:42:59;21.60;91.50
74153;DHT22;62505;46.070;14.492;2022-11-15T12:45:29;21.60;91.50
74153;DHT22;62505;46.070;14.492;2022-11-15T12:51:03;21.60;91.50
74153;DHT22;62505;46.070;14.492;2022-11-15T12:53:31;21.60;91.50
74153;DHT22;62505;46.070;14.492;2022-11-15T12:56:18;21.60;91.40
74153;DHT22;62505;46.070;14.492;2022-11-15T12:58:47;21.60;91.30
74153;DHT22;62505;46.070;14.492;2022-11-15T13:04:25;21.60;91.10
74153;DHT22;62505;46.070;14.492;2022-11-15T13:06:54;21.60;91.10
74153;DHT22;62505;46.070;14.492;2022-11-15T13:09:53;21.60;91.20
74153;DHT22;62505;46.070;14.492;2022-11-15T13:12:55;21.60;91.20
74153;DHT22;62505;46.070;14.492;2022-11-15T13:15:53;21.70;91.40
74153;DHT22;62505;46.070;14.492;2022-11-15T13:18:37;21.70;91.50
74153;DHT22;62505;46.070;14.492;2022-11-15T13:21:19;21.70;91.30
74153;DHT22;62505;46.070;14.492;2022-11-15T13:24:05;21.70;91.30
74153;DHT22;62505;46.070;14.492;2022-11-15T13:26:38;21.70;91.30
74153;DHT22;62505;46.070;14.492;2022-11-15T13:29:15;21.70;91.30
74153;DHT22;62505;46.070;14.492;2022-11-15T13:31:44;21.70;91.30
74153;DHT22;62505;46.070;14.492;2022-11-15T13:34:22;21.70;91.40
74153;DHT22;62505;46.070;14.492;2022-11-15T13:36:52;21.70;91.40
74153;DHT22;62505;46.070;14.492;2022-11-15T13:39:30;21.70;91.30
74153;DHT22;62505;46.070;14.492;2022-11-15T13:41:58;21.70;91.30
74153;DHT22;62505;46.070;14.492;2022-11-15T13:44:27;21.70;91.30
74153;DHT22;62505;46.070;14.492;2022-11-15T13:47:02;21.70;91.30
74153;DHT22;62505;46.070;14.492;2022-11-15T13:49:30;21.70;91.80
74153;DHT22;62505;46.070;14.492;2022-11-15T13:52:00;21.80;91.80
74153;DHT22;62505;46.070;14.492;2022-11-15T13:54:29;21.80;91.80
74153;DHT22;62505;46.070;14.492;2022-11-15T13:57:02;21.80;91.50
74153;DHT22;62505;46.070;14.492;2022-11-15T13:59:33;21.80;91.30
74153;DHT22;62505;46.070;14.492;2022-11-15T14:02:14;21.80;91.30
74153;DHT22;62505;46.070;14.492;2022-11-15T14:04:46;21.70;91.20
74153;DHT22;62505;46.070;14.492;2022-11-15T14:07:20;21.70;91.20
74153;DHT22;62505;46.070;14.492;2022-11-15T14:09:49;21.70;91.00
74153;DHT22;62505;46.070;14.492;2022-11-15T14:12:26;21.70;91.00
74153;DHT22;62505;46.070;14.492;2022-11-15T14:14:53;21.70;91.20
74153;DHT22;62505;46.070;14.492;2022-11-15T14:17:32;21.70;92.80
74153;DHT22;62505;46.070;14.492;2022-11-15T14:19:59;21.70;92.30
74153;DHT22;62505;46.070;14.492;2022-11-15T14:22:29;21.80;92.30
74153;DHT22;62505;46.070;14.492;2022-11-15T14:25:23;21.80;93.10
74153;DHT22;62505;46.070;14.492;2022-11-15T14:28:12;21.70;92.20
74153;DHT22;62505;46.070;14.492;2022-11-15T14:30:40;21.70;91.90
74153;DHT22;62505;46.070;14.492;2022-11-15T14:33:20;21.70;91.50
74153;DHT22;62505;46.070;14.492;2022-11-15T14:35:47;21.70;91.40
74153;DHT22;62505;46.070;14.492;2022-11-15T14:38:15;21.70;91.40
74153;DHT22;62505;46.070;14.492;2022-11-15T14:40:43;21.70;91.40
74153;DHT22;62505;46.070;14.492;2022-11-15T14:43:11;21.60;91.50
74153;DHT22;62505;46.070;14.492;2022-11-15T14:45:38;21.70;91.50
74153;DHT22;62505;46.070;14.492;2022-11-15T14:48:05;21.70;91.70
74153;DHT22;62505;46.070;14.492;2022-11-15T14:50:34;21.60;91.50
74153;DHT22;62505;46.070;14.492;2022-11-15T14:53:01;21.60;91.50
74153;DHT22;62505;46.070;14.492;2022-11-15T14:55:31;21.60;91.60
74153;DHT22;62505;46.070;14.492;2022-11-15T14:58:00;21.60;91.50
74153;DHT22;62505;46.070;14.492;2022-11-15T15:00:28;21.60;91.50
74153;DHT22;62505;46.070;14.492;2022-11-15T15:02:56;21.60;91.50
74153;DHT22;62505;46.070;14.492;2022-11-15T15:05:24;21.60;91.60
74153;DHT22;62505;46.070;14.492;2022-11-15T15:07:51;21.60;91.70
74153;DHT22;62505;46.070;14.492;2022-11-15T15:10:19;21.60;91.60
74153;DHT22;62505;46.070;14.492;2022-11-15T15:12:48;21.60;91.70
74153;DHT22;62505;46.070;14.492;2022-11-15T15:15:19;21.60;91.60
74153;DHT22;62505;46.070;14.492;2022-11-15T15:17:47;21.60;91.70
74153;DHT22;62505;46.070;14.492;2022-11-15T15:20:15;21.60;91.50
74153;DHT22;62505;46.070;14.492;2022-11-15T15:22:42;21.60;91.50
74153;DHT22;62505;46.070;14.492;2022-11-15T15:25:21;21.60;91.50
74153;DHT22;62505;46.070;14.492;2022-11-15T15:27:50;21.60;91.70
74153;DHT22;62505;46.070;14.492;2022-11-15T15:30:17;21.60;91.40
74153;DHT22;62505;46.070;14.492;2022-11-15T15:32:44;21.60;91.30
74153;DHT22;62505;46.070;14.492;2022-11-15T15:35:12;21.60;91.60
74153;DHT22;62505;46.070;14.492;2022-11-15T15:37:40;21.60;91.30
74153;DHT22;62505;46.070;14.492;2022-11-15T15:40:14;21.60;91.20
74153;DHT22;62505;46.070;14.492;2022-11-15T15:42:42;21.60;91.20
74153;DHT22;62505;46.070;14.492;2022-11-15T15:45:10;21.60;91.20
74153;DHT22;62505;46.070;14.492;2022-11-15T15:47:38;21.60;91.20
74153;DHT22;62505;46.070;14.492;2022-11-15T15:50:16;21.50;91.10
74153;DHT22;62505;46.070;14.492;2022-11-15T15:52:44;21.60;91.20
74153;DHT22;62505;46.070;14.492;2022-11-15T15:55:11;21.60;91.20